Time;durP1;ratioP1;P1;durP2;ratioP2;P2;SDS_P1;SDS_P2;PMS_P1;PMS_P2;Temp;Humidity;BMP_temperature;BMP_pressure;BME280_temperature;BME280_humidity;BME280_pressure;Samples;Min_cycle;Max_cycle;Signal;HPM_P1;HPM_P2
2021/12/02 00:00:58;;;;;;;7.07;1.13;;;0.90;99.90;;;;;;4938885;29;20031;-91
2021/12/02 00:03:26;;;;;;;7.18;1.50;;;0.90;99.90;;;;;;4939038;29;20027;-90
2021/12/02 00:05:52;;;;;;;2.47;1.10;;;0.90;99.90;;;;;;4939347;29;20039;-91
2021/12/02 00:08:18;;;;;;;9.40;1.42;;;0.90;99.90;;;;;;4937421;29;20022;-91
2021/12/02 00:10:46;;;;;;;9.23;1.05;;;0.80;99.90;;;;;;4931488;29;20453;-90
2021/12/02 00:13:12;;;;;;;4.07;1.10;;;0.80;99.90;;;;;;4928067;29;20480;-92
2021/12/02 00:15:51;;;;;;;2.55;1.05;;;0.70;99.90;;;;;;4930381;29;20096;-91
2021/12/02 00:21:03;;;;;;;7.90;1.17;;;0.80;99.90;;;;;;4945023;28;20024;-90
2021/12/02 00:23:39;;;;;;;6.03;1.10;;;0.80;99.90;;;;;;4941067;29;20093;-90
2021/12/02 00:26:10;;;;;;;4.97;0.90;;;0.80;99.90;;;;;;4930076;29;20499;-90
2021/12/02 00:28:38;;;;;;;9.38;1.75;;;0.80;99.90;;;;;;4948165;29;20106;-89
2021/12/02 00:31:04;;;;;;;5.38;1.13;;;0.80;99.90;;;;;;4924238;29;20055;-91
2021/12/02 00:33:31;;;;;;;5.22;1.05;;;0.70;99.90;;;;;;4949061;28;20028;-89
2021/12/02 00:35:58;;;;;;;10.63;1.20;;;0.70;99.90;;;;;;4933365;29;20493;-90
2021/12/02 00:38:25;;;;;;;3.25;0.90;;;0.70;99.90;;;;;;4932500;29;20027;-91
2021/12/02 00:40:52;;;;;;;5.78;0.90;;;0.70;99.90;;;;;;4929205;29;20024;-90
2021/12/02 00:43:17;;;;;;;5.05;0.90;;;0.70;99.90;;;;;;4933454;29;20039;-90
2021/12/02 00:45:45;;;;;;;5.30;0.80;;;0.80;99.90;;;;;;4931444;29;20024;-90
2021/12/02 00:48:13;;;;;;;4.13;0.73;;;0.70;99.90;;;;;;4933653;29;20043;-90
2021/12/02 00:50:44;;;;;;;2.70;0.90;;;0.70;99.90;;;;;;4949467;29;20047;-91
2021/12/02 00:53:10;;;;;;;4.03;0.88;;;0.80;99.90;;;;;;4931863;29;20044;-90
2021/12/02 00:55:39;;;;;;;3.17;0.70;;;0.80;99.90;;;;;;4926165;29;20031;-89
2021/12/02 00:58:05;;;;;;;5.63;0.70;;;0.80;99.90;;;;;;4923189;29;20028;-89
2021/12/02 01:00:32;;;;;;;9.55;0.88;;;0.90;99.90;;;;;;4940359;29;20035;-90
2021/12/02 01:03:02;;;;;;;5.47;0.80;;;0.90;99.90;;;;;;4927895;29;20023;-90
2021/12/02 01:05:30;;;;;;;8.90;0.90;;;1.00;99.90;;;;;;4929639;29;20036;-91
2021/12/02 01:07:58;;;;;;;7.35;0.80;;;1.00;99.90;;;;;;4928950;29;20028;-90
2021/12/02 01:10:24;;;;;;;5.80;0.75;;;1.10;99.90;;;;;;4928222;29;20056;-90
2021/12/02 01:12:50;;;;;;;3.17;0.75;;;1.10;99.90;;;;;;4924688;29;20082;-90
2021/12/02 01:15:16;;;;;;;9.32;1.00;;;1.10;99.90;;;;;;4924297;29;20035;-89
2021/12/02 01:17:42;;;;;;;2.53;0.80;;;1.10;99.90;;;;;;4924040;29;20059;-89
2021/12/02 01:20:08;;;;;;;2.28;0.68;;;1.20;99.90;;;;;;4923319;29;20054;-90
2021/12/02 01:22:39;;;;;;;5.90;0.80;;;1.20;99.90;;;;;;4923273;29;20122;-90
2021/12/02 01:25:08;;;;;;;2.03;0.60;;;1.20;99.90;;;;;;4923544;29;20034;-89
2021/12/02 01:27:35;;;;;;;2.35;1.10;;;1.20;99.90;;;;;;4922935;29;20043;-91
2021/12/02 01:30:03;;;;;;;6.75;1.30;;;1.30;99.90;;;;;;4922689;29;20035;-89
2021/12/02 01:32:33;;;;;;;8.45;0.88;;;1.30;99.90;;;;;;4923436;29;20035;-90
2021/12/02 01:35:02;;;;;;;2.83;0.80;;;1.30;99.90;;;;;;4924063;29;20027;-89
2021/12/02 01:37:30;;;;;;;6.75;0.90;;;1.30;99.90;;;;;;4927217;29;20046;-91
2021/12/02 01:39:57;;;;;;;3.28;0.90;;;1.30;99.90;;;;;;4922913;29;20478;-90
2021/12/02 01:42:25;;;;;;;5.32;0.88;;;1.40;99.90;;;;;;4922554;29;20082;-90
2021/12/02 01:44:53;;;;;;;7.43;0.98;;;1.40;99.90;;;;;;4922071;29;20031;-90
2021/12/02 01:47:23;;;;;;;2.53;0.45;;;1.50;99.90;;;;;;4921947;29;20083;-90
2021/12/02 01:49:53;;;;;;;2.63;1.42;;;1.50;99.90;;;;;;4922093;29;20448;-91
2021/12/02 01:52:23;;;;;;;3.78;0.90;;;1.50;99.90;;;;;;4922524;29;20042;-90
2021/12/02 01:54:51;;;;;;;4.20;1.00;;;1.50;99.90;;;;;;4922367;29;20628;-91
2021/12/02 01:57:30;;;;;;;3.72;0.98;;;1.50;99.90;;;;;;4922152;29;20043;-91
2021/12/02 02:00:15;;;;;;;7.57;1.13;;;1.50;99.90;;;;;;4921712;29;20023;-90
2021/12/02 02:02:42;;;;;;;3.13;0.90;;;1.60;99.90;;;;;;4921954;29;20027;-91
2021/12/02 02:05:12;;;;;;;6.57;0.70;;;1.60;99.90;;;;;;4921452;29;20501;-91
2021/12/02 02:07:47;;;;;;;3.63;0.90;;;1.60;99.90;;;;;;4921691;29;20537;-91
2021/12/02 02:10:13;;;;;;;3.40;1.05;;;1.60;99.90;;;;;;4921066;29;20052;-90
2021/12/02 02:12:39;;;;;;;4.15;1.20;;;1.60;99.90;;;;;;4921318;29;20028;-90
2021/12/02 02:15:05;;;;;;;9.10;1.30;;;1.60;99.90;;;;;;4921582;29;20382;-90
2021/12/02 02:17:37;;;;;;;7.28;1.20;;;1.60;99.90;;;;;;4921547;29;20032;-90
2021/12/02 02:20:05;;;;;;;3.25;0.70;;;1.60;99.90;;;;;;4921736;29;20043;-90
2021/12/02 02:22:31;;;;;;;7.43;1.00;;;1.60;99.90;;;;;;4921179;29;20412;-90
2021/12/02 02:24:56;;;;;;;2.25;0.90;;;1.60;99.90;;;;;;4921177;29;20028;-90
2021/12/02 02:27:22;;;;;;;3.95;0.82;;;1.60;99.90;;;;;;4920965;29;20035;-90
2021/12/02 02:29:48;;;;;;;3.50;0.70;;;1.60;99.90;;;;;;4921148;29;20118;-90
2021/12/02 02:32:14;;;;;;;6.05;1.00;;;1.60;99.90;;;;;;4921339;29;20059;-90
2021/12/02 02:34:39;;;;;;;1.48;0.45;;;1.60;99.90;;;;;;4921602;29;20059;-91
2021/12/02 02:37:06;;;;;;;3.20;0.70;;;1.60;99.90;;;;;;4920818;29;20126;-90
2021/12/02 02:39:34;;;;;;;4.18;0.88;;;1.60;99.90;;;;;;4921098;29;20066;-90
2021/12/02 02:42:03;;;;;;;6.53;0.93;;;1.60;99.90;;;;;;4920968;29;20027;-90
2021/12/02 02:44:30;;;;;;;6.13;0.93;;;1.60;99.90;;;;;;4920789;29;20473;-91
2021/12/02 02:46:56;;;;;;;6.38;0.95;;;1.60;99.90;;;;;;4920536;29;20048;-90
2021/12/02 02:49:22;;;;;;;2.58;0.80;;;1.60;99.90;;;;;;4921033;29;20027;-91
2021/12/02 02:51:49;;;;;;;3.42;0.90;;;1.70;99.90;;;;;;4920813;29;20050;-90
2021/12/02 02:54:16;;;;;;;5.00;1.50;;;1.70;99.90;;;;;;4921439;29;20095;-90
2021/12/02 02:56:53;;;;;;;3.75;0.75;;;1.70;99.90;;;;;;4920160;29;20058;-89
2021/12/02 02:59:31;;;;;;;1.67;0.52;;;1.70;99.90;;;;;;4922152;29;20027;-89
2021/12/02 03:04:54;;;;;;;5.32;0.60;;;1.70;99.90;;;;;;4938250;29;20042;-90
2021/12/02 03:07:29;;;;;;;3.53;0.88;;;1.80;99.90;;;;;;4920652;29;20104;-90
2021/12/02 03:12:36;;;;;;;2.88;0.70;;;1.80;99.90;;;;;;4937532;29;20031;-90
2021/12/02 03:17:29;;;;;;;6.88;1.30;;;1.80;99.90;;;;;;4937808;29;20038;-89
2021/12/02 03:19:55;;;;;;;5.15;0.50;;;1.80;99.90;;;;;;4920172;29;20035;-89
2021/12/02 03:22:21;;;;;;;4.10;1.20;;;1.80;99.90;;;;;;4919890;29;20031;-90
2021/12/02 03:24:47;;;;;;;5.60;0.70;;;1.80;99.90;;;;;;4920322;29;20054;-90
2021/12/02 03:27:13;;;;;;;4.43;0.50;;;1.80;99.90;;;;;;4920392;29;20046;-89
2021/12/02 03:29:41;;;;;;;6.40;0.75;;;1.80;99.90;;;;;;4922011;29;20032;-90
2021/12/02 03:32:12;;;;;;;1.10;0.50;;;1.90;99.90;;;;;;4919855;29;20035;-89
2021/12/02 03:34:39;;;;;;;3.25;0.68;;;1.90;99.90;;;;;;4919920;29;20024;-89
2021/12/02 03:37:05;;;;;;;5.20;0.77;;;1.90;99.90;;;;;;4919967;29;20036;-90
2021/12/02 03:39:31;;;;;;;3.17;0.63;;;2.00;99.90;;;;;;4919482;29;20082;-90
2021/12/02 03:41:57;;;;;;;3.85;0.35;;;2.00;99.90;;;;;;4919248;29;20059;-89
2021/12/02 03:44:24;;;;;;;2.42;0.55;;;2.00;99.90;;;;;;4919378;29;20027;-90
2021/12/02 03:46:51;;;;;;;5.10;0.55;;;2.00;99.90;;;;;;4919734;29;20481;-91
2021/12/02 03:49:16;;;;;;;5.28;0.47;;;1.90;99.90;;;;;;4919826;29;20099;-90
2021/12/02 03:51:42;;;;;;;4.32;0.50;;;1.90;99.90;;;;;;4920199;29;20493;-90
2021/12/02 03:54:08;;;;;;;2.45;0.60;;;1.90;99.90;;;;;;4919929;29;20087;-90
2021/12/02 03:56:34;;;;;;;4.22;1.02;;;1.80;99.90;;;;;;4920579;29;20478;-91
2021/12/02 03:59:00;;;;;;;1.67;0.65;;;1.80;99.90;;;;;;4936210;29;20027;-90
2021/12/02 04:01:26;;;;;;;2.60;0.70;;;1.80;99.90;;;;;;4943603;29;20028;-90
2021/12/02 04:03:52;;;;;;;4.82;0.60;;;1.70;99.90;;;;;;4946042;29;20047;-90
2021/12/02 04:06:18;;;;;;;6.07;1.38;;;1.60;99.90;;;;;;4944567;29;20429;-90
2021/12/02 04:08:53;;;;;;;3.70;0.50;;;1.60;99.90;;;;;;4947116;29;20047;-91
2021/12/02 04:14:04;;;;;;;3.00;0.55;;;1.60;99.90;;;;;;4960802;28;20167;-90
2021/12/02 04:16:34;;;;;;;6.85;0.65;;;1.50;99.90;;;;;;4943559;29;20047;-89
2021/12/02 04:19:00;;;;;;;3.40;1.30;;;1.50;99.90;;;;;;4943372;29;20030;-89
2021/12/02 04:21:26;;;;;;;6.38;0.55;;;1.50;99.90;;;;;;4942764;29;20075;-89
2021/12/02 04:23:52;;;;;;;2.47;0.50;;;1.40;99.90;;;;;;4942768;29;20039;-89
2021/12/02 04:26:18;;;;;;;1.75;0.50;;;1.40;99.90;;;;;;4942621;29;20039;-89
2021/12/02 04:28:43;;;;;;;8.55;2.25;;;1.40;99.90;;;;;;4941873;29;20029;-90
2021/12/02 04:31:09;;;;;;;23.00;0.98;;;1.30;99.90;;;;;;4942095;29;20043;-90
2021/12/02 04:33:35;;;;;;;4.38;0.77;;;1.30;99.90;;;;;;4942463;29;20027;-89
2021/12/02 04:36:02;;;;;;;3.88;0.50;;;1.30;99.90;;;;;;4941129;29;20035;-89
2021/12/02 04:38:28;;;;;;;8.57;1.80;;;1.30;99.90;;;;;;4942628;29;20019;-90
2021/12/02 04:40:55;;;;;;;2.70;0.57;;;1.30;99.90;;;;;;4942282;29;20020;-90
2021/12/02 04:43:21;;;;;;;3.15;0.50;;;1.30;99.90;;;;;;4942256;29;20148;-91
2021/12/02 04:45:46;;;;;;;5.00;1.38;;;1.30;99.90;;;;;;4942241;29;20039;-90
2021/12/02 04:48:12;;;;;;;1.30;0.50;;;1.30;99.90;;;;;;4942236;29;20058;-90
2021/12/02 04:50:38;;;;;;;3.95;0.40;;;1.30;99.90;;;;;;4942395;29;20027;-90
2021/12/02 04:53:04;;;;;;;6.18;0.90;;;1.30;99.90;;;;;;4942090;29;20492;-90
2021/12/02 04:55:29;;;;;;;1.60;0.30;;;1.30;99.90;;;;;;4942723;29;20027;-90
2021/12/02 04:57:55;;;;;;;1.33;0.45;;;1.30;99.90;;;;;;4941803;29;20149;-91
2021/12/02 05:00:21;;;;;;;6.10;0.50;;;1.30;99.90;;;;;;4941966;29;20369;-90
2021/12/02 05:02:47;;;;;;;5.28;0.80;;;1.30;99.90;;;;;;4941733;29;20507;-91
2021/12/02 05:05:13;;;;;;;3.78;0.43;;;1.30;99.90;;;;;;4941789;29;20082;-90
2021/12/02 05:07:38;;;;;;;2.92;0.50;;;1.20;99.90;;;;;;4941577;29;20481;-90
2021/12/02 05:10:06;;;;;;;4.43;0.80;;;1.20;99.90;;;;;;4941507;29;20043;-90
2021/12/02 05:12:32;;;;;;;4.88;0.68;;;1.20;99.90;;;;;;4941899;29;20089;-91
2021/12/02 05:14:58;;;;;;;2.60;1.15;;;1.10;99.90;;;;;;4941926;29;20027;-91
2021/12/02 05:17:23;;;;;;;6.53;0.57;;;1.10;99.90;;;;;;4942147;29;20027;-90
2021/12/02 05:19:49;;;;;;;0.82;0.30;;;1.00;99.90;;;;;;4946302;29;20112;-91
2021/12/02 05:22:16;;;;;;;2.15;0.57;;;1.00;99.90;;;;;;4942302;29;20533;-91
2021/12/02 05:24:41;;;;;;;2.03;0.60;;;1.00;99.90;;;;;;4941359;29;20038;-91
2021/12/02 05:27:07;;;;;;;3.35;0.93;;;0.90;99.90;;;;;;4941561;29;20113;-90
2021/12/02 05:29:33;;;;;;;8.13;0.50;;;0.90;99.90;;;;;;4941711;29;20122;-91
2021/12/02 05:31:59;;;;;;;0.40;0.30;;;0.90;99.90;;;;;;4941880;29;20123;-91
2021/12/02 05:34:25;;;;;;;2.58;0.30;;;0.80;99.90;;;;;;4958903;28;20054;-90
2021/12/02 05:36:50;;;;;;;3.70;0.90;;;0.80;99.90;;;;;;4941567;29;20031;-91
2021/12/02 05:39:16;;;;;;;4.88;0.40;;;0.80;99.90;;;;;;4941623;29;20077;-90
2021/12/02 05:41:43;;;;;;;2.88;0.60;;;0.80;99.90;;;;;;4941558;29;20039;-90
2021/12/02 05:44:09;;;;;;;2.55;0.43;;;0.70;99.90;;;;;;4941198;29;20067;-90
2021/12/02 05:46:34;;;;;;;2.50;0.50;;;0.70;99.90;;;;;;4941423;29;20035;-91
2021/12/02 05:49:00;;;;;;;1.77;0.60;;;0.70;99.90;;;;;;4941218;29;20024;-90
2021/12/02 05:51:26;;;;;;;3.08;0.50;;;0.70;99.90;;;;;;4940662;29;20043;-91
2021/12/02 05:53:52;;;;;;;1.77;0.43;;;0.60;99.90;;;;;;4941191;29;20059;-90
2021/12/02 05:56:18;;;;;;;1.58;0.40;;;0.60;99.90;;;;;;4940834;29;20448;-91
2021/12/02 05:58:43;;;;;;;5.35;0.40;;;0.60;99.90;;;;;;4940539;29;20023;-90
2021/12/02 06:01:09;;;;;;;2.03;0.28;;;0.50;99.90;;;;;;4938416;29;20051;-91
2021/12/02 06:03:36;;;;;;;0.88;0.30;;;0.50;99.90;;;;;;4936177;29;20074;-91
2021/12/02 06:06:03;;;;;;;0.47;0.30;;;0.50;99.90;;;;;;4928746;29;20028;-91
2021/12/02 06:08:33;;;;;;;4.68;0.40;;;0.60;99.90;;;;;;4945289;29;20023;-91
2021/12/02 06:10:58;;;;;;;1.35;0.50;;;0.60;99.90;;;;;;4929569;29;20148;-90
2021/12/02 06:13:25;;;;;;;0.95;0.60;;;0.60;99.90;;;;;;4931424;29;20031;-91
2021/12/02 06:15:51;;;;;;;1.35;0.40;;;0.60;99.90;;;;;;4932013;29;20540;-91
2021/12/02 06:18:17;;;;;;;0.77;0.43;;;0.70;99.90;;;;;;4927462;29;20098;-90
2021/12/02 06:20:43;;;;;;;1.98;0.45;;;0.60;99.90;;;;;;4930887;29;20058;-91
2021/12/02 06:23:08;;;;;;;6.57;0.95;;;0.60;99.90;;;;;;4931128;29;20030;-91
2021/12/02 06:28:04;;;;;;;1.02;0.50;;;0.60;99.90;;;;;;4948505;28;20122;-91
2021/12/02 06:30:30;;;;;;;0.75;0.25;;;0.60;99.90;;;;;;4930395;29;20039;-91
2021/12/02 06:32:56;;;;;;;1.30;0.77;;;0.60;99.90;;;;;;4928209;29;20039;-92
2021/12/02 06:35:21;;;;;;;5.15;0.43;;;0.60;99.90;;;;;;4931640;29;20038;-92
2021/12/02 06:37:48;;;;;;;3.92;0.50;;;0.50;99.90;;;;;;4930679;29;20075;-91
2021/12/02 06:40:14;;;;;;;1.38;0.45;;;0.50;99.90;;;;;;4930834;29;20127;-92
2021/12/02 06:42:43;;;;;;;3.65;0.90;;;0.60;99.90;;;;;;4928493;29;20036;-92
2021/12/02 06:45:10;;;;;;;3.42;0.40;;;0.50;99.90;;;;;;4930917;29;20023;-92
2021/12/02 06:47:39;;;;;;;0.90;0.40;;;0.60;99.90;;;;;;4946657;28;20495;-91
2021/12/02 06:50:09;;;;;;;1.45;0.32;;;0.50;99.90;;;;;;4925240;29;20115;-91
2021/12/02 06:52:35;;;;;;;1.17;0.33;;;0.50;99.90;;;;;;4932847;29;20066;-91
2021/12/02 06:55:01;;;;;;;2.42;0.43;;;0.50;99.90;;;;;;4930490;29;20023;-91
2021/12/02 06:57:27;;;;;;;3.65;0.68;;;0.50;99.90;;;;;;4935094;29;20031;-90
2021/12/02 06:59:52;;;;;;;4.22;0.52;;;0.40;99.90;;;;;;4937983;29;20055;-91
2021/12/02 07:02:20;;;;;;;2.30;0.38;;;0.40;99.90;;;;;;4939836;29;20023;-91
2021/12/02 07:04:46;;;;;;;2.72;0.73;;;0.40;99.90;;;;;;4935488;29;20024;-90
2021/12/02 07:07:12;;;;;;;2.33;0.50;;;0.40;99.90;;;;;;4942235;29;20023;-92
2021/12/02 07:09:38;;;;;;;1.02;0.40;;;0.40;99.90;;;;;;4937709;29;20054;-91
2021/12/02 07:12:04;;;;;;;4.40;0.52;;;0.40;99.90;;;;;;4938485;29;20051;-91
2021/12/02 07:14:29;;;;;;;2.55;0.40;;;0.40;99.90;;;;;;4938925;29;20023;-91
2021/12/02 07:16:57;;;;;;;3.90;0.82;;;0.40;99.90;;;;;;4936107;29;20501;-92
2021/12/02 07:19:23;;;;;;;2.33;0.50;;;0.40;99.90;;;;;;4931036;29;20039;-90
2021/12/02 07:21:49;;;;;;;1.13;0.60;;;0.30;99.90;;;;;;4930080;29;20407;-91
2021/12/02 07:24:16;;;;;;;7.65;0.77;;;0.30;99.90;;;;;;4930433;29;20023;-91
2021/12/02 07:26:44;;;;;;;3.97;0.50;;;0.40;99.90;;;;;;4929645;29;20020;-90
2021/12/02 07:29:18;;;;;;;3.15;0.63;;;0.40;99.90;;;;;;4930041;29;20024;-90
2021/12/02 07:31:44;;;;;;;5.82;0.80;;;0.30;99.90;;;;;;4929299;29;20035;-90
2021/12/02 07:34:10;;;;;;;2.08;0.88;;;0.40;99.90;;;;;;4931347;29;20106;-90
2021/12/02 07:36:37;;;;;;;2.90;0.50;;;0.30;99.90;;;;;;4929974;29;20086;-91
2021/12/02 07:39:05;;;;;;;8.05;0.77;;;0.30;99.90;;;;;;4929310;29;20027;-92
2021/12/02 07:41:31;;;;;;;3.50;0.70;;;0.30;99.90;;;;;;4931249;29;20488;-91
2021/12/02 07:43:57;;;;;;;5.22;0.80;;;0.30;99.90;;;;;;4928393;29;20031;-91
2021/12/02 07:46:22;;;;;;;2.72;0.95;;;0.20;99.90;;;;;;4949739;29;20035;-90
2021/12/02 07:48:48;;;;;;;3.88;0.57;;;0.20;99.90;;;;;;4939385;29;20396;-90
2021/12/02 07:51:16;;;;;;;4.38;0.47;;;0.20;99.90;;;;;;4938961;29;20063;-91
2021/12/02 07:53:44;;;;;;;1.70;0.60;;;0.10;99.90;;;;;;4938731;29;20036;-91
2021/12/02 07:56:12;;;;;;;6.50;0.57;;;0.20;99.90;;;;;;4938557;29;20024;-90
2021/12/02 07:58:45;;;;;;;1.98;0.50;;;0.10;99.90;;;;;;4938523;29;20032;-90
2021/12/02 08:01:12;;;;;;;1.92;0.60;;;0.10;99.90;;;;;;4938932;29;20031;-90
2021/12/02 08:03:43;;;;;;;4.18;0.82;;;0.10;99.90;;;;;;4934810;29;20019;-90
2021/12/02 08:06:11;;;;;;;3.88;0.80;;;0.10;99.90;;;;;;4927473;29;20055;-90
2021/12/02 08:08:38;;;;;;;7.22;0.85;;;0.10;99.90;;;;;;4928687;29;20027;-92
2021/12/02 08:11:09;;;;;;;4.85;0.85;;;0.00;99.90;;;;;;4932415;29;20055;-91
2021/12/02 08:13:35;;;;;;;2.00;0.50;;;0.00;99.90;;;;;;4936271;29;20031;-90
2021/12/02 08:16:05;;;;;;;3.45;0.60;;;0.10;99.90;;;;;;4934220;29;20031;-90
2021/12/02 08:18:38;;;;;;;5.95;1.02;;;0.10;99.90;;;;;;4936525;29;20469;-90
2021/12/02 08:21:04;;;;;;;2.20;0.60;;;0.10;99.90;;;;;;4960478;28;20059;-91
2021/12/02 08:23:29;;;;;;;1.10;0.50;;;0.10;99.90;;;;;;4937532;29;20031;-89
2021/12/02 08:25:56;;;;;;;5.10;0.60;;;0.10;99.90;;;;;;4936221;29;20078;-89
2021/12/02 08:28:22;;;;;;;4.18;0.60;;;0.10;99.90;;;;;;4934011;29;20031;-90
2021/12/02 08:30:49;;;;;;;1.50;0.47;;;0.10;99.90;;;;;;4923917;29;20024;-91
2021/12/02 08:33:18;;;;;;;2.00;0.52;;;0.10;99.90;;;;;;4919436;29;20500;-90
2021/12/02 08:35:44;;;;;;;2.85;0.75;;;0.10;99.90;;;;;;4919376;29;20035;-90
2021/12/02 08:38:12;;;;;;;1.13;0.43;;;0.10;99.90;;;;;;4919668;29;20044;-90
2021/12/02 08:40:40;;;;;;;5.30;0.77;;;0.10;99.90;;;;;;4919114;29;20035;-91
2021/12/02 08:43:08;;;;;;;6.15;0.73;;;0.20;99.90;;;;;;4919126;29;20020;-92
2021/12/02 08:45:36;;;;;;;4.45;0.70;;;0.10;99.90;;;;;;4919252;29;20491;-91
2021/12/02 08:48:04;;;;;;;3.75;0.68;;;0.20;99.90;;;;;;4919316;29;20537;-90
2021/12/02 08:50:30;;;;;;;5.93;1.45;;;0.20;99.90;;;;;;4918741;29;20031;-93
2021/12/02 08:52:58;;;;;;;4.88;1.05;;;0.20;99.90;;;;;;4916872;28;20039;-90
2021/12/02 08:55:24;;;;;;;2.33;1.17;;;0.20;99.90;;;;;;4938053;28;20031;-90
2021/12/02 08:57:52;;;;;;;4.32;0.98;;;0.30;99.90;;;;;;4936638;29;20119;-92
2021/12/02 09:00:21;;;;;;;3.58;0.57;;;0.30;99.90;;;;;;4936021;29;20027;-91
2021/12/02 09:02:47;;;;;;;8.25;0.90;;;0.40;99.90;;;;;;4942128;28;20063;-92
2021/12/02 09:05:16;;;;;;;2.15;0.80;;;0.40;99.90;;;;;;4935447;29;20572;-91
2021/12/02 09:07:42;;;;;;;4.93;1.08;;;0.40;99.90;;;;;;4929032;29;20027;-90
2021/12/02 09:10:09;;;;;;;2.95;0.60;;;0.50;99.90;;;;;;4932673;29;20140;-91
2021/12/02 09:12:35;;;;;;;3.75;1.20;;;0.60;99.90;;;;;;4936179;29;20110;-91
2021/12/02 09:15:02;;;;;;;3.05;0.70;;;0.70;99.90;;;;;;4932302;29;20114;-92
2021/12/02 09:17:28;;;;;;;5.93;0.98;;;0.80;99.90;;;;;;4932815;29;20438;-91
2021/12/02 09:19:54;;;;;;;5.28;1.20;;;1.00;99.90;;;;;;4931945;29;20050;-91
2021/12/02 09:22:19;;;;;;;5.00;1.00;;;1.10;99.90;;;;;;4932218;29;20107;-91
2021/12/02 09:24:45;;;;;;;5.38;0.88;;;1.30;99.90;;;;;;4932068;29;20027;-91
2021/12/02 09:27:11;;;;;;;6.88;1.10;;;1.50;99.90;;;;;;4933224;29;20465;-91
2021/12/02 09:29:37;;;;;;;10.05;1.50;;;1.70;99.90;;;;;;4929441;29;20027;-91
2021/12/02 09:32:03;;;;;;;6.90;0.93;;;1.90;99.90;;;;;;4929615;29;20039;-91
2021/12/02 09:34:29;;;;;;;8.40;1.10;;;2.00;99.90;;;;;;4933331;29;20121;-91
2021/12/02 09:36:56;;;;;;;5.72;1.13;;;2.10;99.90;;;;;;4931866;29;20027;-91
2021/12/02 09:39:21;;;;;;;6.32;1.58;;;2.30;99.90;;;;;;4932525;29;20441;-92
2021/12/02 09:41:47;;;;;;;3.95;0.73;;;2.40;99.90;;;;;;4929879;29;20084;-91
2021/12/02 09:44:15;;;;;;;9.23;1.45;;;2.60;99.90;;;;;;4931550;29;20051;-92
2021/12/02 09:46:41;;;;;;;6.55;0.93;;;2.80;99.90;;;;;;4930697;29;20023;-91
2021/12/02 09:49:10;;;;;;;5.60;0.75;;;2.90;99.90;;;;;;4929221;29;20019;-91
2021/12/02 09:51:57;;;;;;;2.42;1.00;;;3.10;99.90;;;;;;4944089;29;20050;-91
2021/12/02 09:54:32;;;;;;;14.98;1.85;;;3.20;99.90;;;;;;4931918;29;20031;-91
2021/12/02 09:57:02;;;;;;;7.97;0.93;;;3.40;99.90;;;;;;4931788;29;20031;-91
2021/12/02 09:59:39;;;;;;;6.45;1.48;;;3.60;99.90;;;;;;4930916;29;20127;-91
2021/12/02 10:02:07;;;;;;;13.52;1.60;;;3.70;99.90;;;;;;4934590;29;20034;-91
2021/12/02 10:04:42;;;;;;;9.18;1.40;;;3.90;99.90;;;;;;4930732;28;20031;-91
2021/12/02 10:07:17;;;;;;;4.38;1.08;;;4.00;99.90;;;;;;4931651;29;20023;-90
2021/12/02 10:10:17;;;;;;;5.20;0.93;;;4.20;99.90;;;;;;4931553;29;20028;-92
2021/12/02 10:13:00;;;;;;;12.98;1.45;;;4.30;99.20;;;;;;4957040;29;20544;-92
2021/12/02 10:15:27;;;;;;;7.50;1.42;;;4.50;98.60;;;;;;4945582;29;20043;-92
2021/12/02 10:17:54;;;;;;;5.90;1.02;;;4.60;97.60;;;;;;4946939;29;20023;-91
2021/12/02 10:23:10;;;;;;;6.72;0.85;;;5.00;97.40;;;;;;4947287;28;20031;-92
2021/12/02 10:25:36;;;;;;;4.40;1.25;;;5.20;96.80;;;;;;4952011;29;20141;-92
2021/12/02 10:28:09;;;;;;;5.93;1.08;;;5.40;96.30;;;;;;4920540;29;20387;-93
2021/12/02 10:30:50;;;;;;;9.30;1.20;;;5.80;95.90;;;;;;4940906;28;20040;-95
2021/12/02 10:33:29;;;;;;;;;;;6.00;94.60;;;;;;4967634;28;20150;-96
2021/12/02 10:35:58;;;;;;;5.88;1.20;;;6.10;93.50;;;;;;4955349;29;19913;-96
2021/12/02 10:38:47;;;;;;;7.13;1.35;;;6.20;92.40;;;;;;4955812;29;20027;-96
2021/12/02 10:41:24;;;;;;;8.88;1.00;;;6.50;92.30;;;;;;4954723;29;20028;-96
2021/12/02 10:44:14;;;;;;;5.28;1.73;;;6.70;91.30;;;;;;4953567;29;20031;-95
2021/12/02 10:46:52;;;;;;;4.40;0.90;;;6.80;90.30;;;;;;4951092;29;20054;-96
2021/12/02 10:49:19;;;;;;;8.38;1.27;;;6.90;89.30;;;;;;4949434;29;20040;-94
2021/12/02 10:51:50;;;;;;;5.47;1.13;;;7.00;88.80;;;;;;4948868;29;20115;-95
2021/12/02 10:54:25;;;;;;;12.20;1.20;;;7.10;87.40;;;;;;4948257;29;20076;-95
2021/12/02 10:56:55;;;;;;;6.13;1.02;;;7.30;86.90;;;;;;4947026;29;20040;-96
2021/12/02 10:59:35;;;;;;;7.35;1.27;;;7.50;86.70;;;;;;4948623;29;20034;-95
2021/12/02 11:02:09;;;;;;;5.13;1.40;;;7.90;86.10;;;;;;4950171;29;20039;-95
2021/12/02 11:04:42;;;;;;;5.28;1.05;;;8.20;84.70;;;;;;4983797;28;20024;-96
2021/12/02 11:07:31;;;;;;;5.38;1.05;;;8.50;83.40;;;;;;4954405;29;20039;-96
2021/12/02 11:10:03;;;;;;;8.18;1.30;;;8.80;82.30;;;;;;4962335;29;20103;-95
2021/12/02 11:12:31;;;;;;;11.82;1.25;;;8.90;80.20;;;;;;4932936;29;20043;-94
2021/12/02 11:15:10;;;;;;;7.72;1.20;;;8.90;78.60;;;;;;4932660;29;20019;-95
2021/12/02 11:17:49;;;;;;;5.32;1.15;;;9.00;78.60;;;;;;4950806;29;20028;-96
2021/12/02 11:20:35;;;;;;;10.52;1.73;;;9.10;78.00;;;;;;4935845;29;20032;-95
2021/12/02 11:23:18;;;;;;;5.72;1.50;;;9.40;77.70;;;;;;4934885;29;20052;-96
2021/12/02 11:25:56;;;;;;;6.55;1.20;;;9.70;76.60;;;;;;4950013;29;20036;-94
2021/12/02 11:28:24;;;;;;;6.80;1.77;;;10.00;76.40;;;;;;4947877;29;20038;-95
2021/12/02 11:30:51;;;;;;;5.82;2.13;;;10.30;75.60;;;;;;4930515;29;20064;-95
2021/12/02 11:33:19;;;;;;;6.55;1.83;;;10.40;73.70;;;;;;4928512;29;20083;-95
2021/12/02 11:35:47;;;;;;;7.47;1.33;;;10.40;72.90;;;;;;4928699;29;20028;-94
2021/12/02 11:38:24;;;;;;;6.40;1.52;;;10.40;72.60;;;;;;4931863;29;20032;-96
2021/12/02 11:40:57;;;;;;;6.28;1.25;;;10.50;72.90;;;;;;4929405;29;20030;-95
2021/12/02 11:43:32;;;;;;;4.25;1.13;;;10.40;71.20;;;;;;4927773;29;20060;-95
2021/12/02 11:46:00;;;;;;;9.52;2.22;;;10.30;70.20;;;;;;4925137;29;20027;-95
2021/12/02 11:48:33;;;;;;;7.05;1.90;;;10.10;69.80;;;;;;4923614;29;20035;-95
2021/12/02 11:51:02;;;;;;;6.45;1.67;;;10.00;69.80;;;;;;4923504;29;20038;-95
2021/12/02 11:53:28;;;;;;;9.23;2.17;;;9.90;69.30;;;;;;4922350;29;20036;-95
2021/12/02 11:56:01;;;;;;;8.27;2.20;;;9.80;69.40;;;;;;4953880;28;20437;-96
2021/12/02 11:58:28;;;;;;;8.98;1.70;;;9.90;69.60;;;;;;4921463;29;20024;-95
2021/12/02 12:00:55;;;;;;;6.03;1.77;;;10.10;69.60;;;;;;4922756;29;20067;-95
2021/12/02 12:03:20;;;;;;;9.27;1.40;;;10.40;69.30;;;;;;4922135;29;20031;-93
2021/12/02 12:05:55;;;;;;;5.65;1.40;;;10.70;68.40;;;;;;4935487;29;20028;-93
2021/12/02 12:08:33;;;;;;;7.80;2.40;;;10.90;66.30;;;;;;4928500;29;20032;-94
2021/12/02 12:11:23;;;;;;;5.25;2.13;;;10.90;65.70;;;;;;4935051;29;20062;-93
2021/12/02 12:13:50;;;;;;;11.65;3.83;;;11.10;65.80;;;;;;4921716;29;20474;-94
2021/12/02 12:16:28;;;;;;;13.73;3.63;;;11.40;65.30;;;;;;4929895;29;20031;-94
2021/12/02 12:19:12;;;;;;;9.52;2.53;;;11.50;64.90;;;;;;4918949;29;20072;-93
2021/12/02 12:21:39;;;;;;;10.23;2.45;;;11.80;64.50;;;;;;4918836;29;20478;-92
2021/12/02 12:24:07;;;;;;;8.50;2.50;;;12.20;63.90;;;;;;4918775;29;20027;-94
2021/12/02 12:26:46;;;;;;;5.65;2.22;;;12.60;63.10;;;;;;4934988;29;20035;-93
2021/12/02 12:29:19;;;;;;;11.30;2.55;;;12.90;62.50;;;;;;4921615;29;20123;-93
2021/12/02 12:32:09;;;;;;;9.05;1.80;;;13.20;60.80;;;;;;4922487;29;20168;-93
2021/12/02 12:34:44;;;;;;;10.40;2.15;;;13.30;59.80;;;;;;4941175;29;20035;-93
2021/12/02 12:37:26;;;;;;;6.70;1.98;;;13.30;59.70;;;;;;4938656;29;20118;-93
2021/12/02 12:40:15;;;;;;;8.48;3.05;;;13.40;59.20;;;;;;4938184;29;20062;-93
2021/12/02 12:42:48;;;;;;;8.88;1.60;;;13.40;58.20;;;;;;4922854;29;20028;-93
2021/12/02 12:45:37;;;;;;;5.97;1.17;;;13.50;58.30;;;;;;4938484;29;20078;-93
2021/12/02 12:48:06;;;;;;;5.45;1.00;;;13.30;57.20;;;;;;4938637;29;20080;-93
2021/12/02 12:50:41;;;;;;;7.20;1.38;;;13.10;56.60;;;;;;4922618;29;20069;-92
2021/12/02 12:53:07;;;;;;;3.03;1.63;;;12.80;56.40;;;;;;4922820;29;20039;-93
2021/12/02 12:55:35;;;;;;;5.25;0.90;;;12.40;56.60;;;;;;4938992;29;20501;-94
2021/12/02 12:58:20;;;;;;;4.63;1.00;;;12.20;56.80;;;;;;4928287;29;20028;-91
2021/12/02 13:00:55;;;;;;;3.42;1.30;;;12.00;57.10;;;;;;4939637;29;20032;-93
2021/12/02 13:03:36;;;;;;;5.22;1.20;;;12.00;57.60;;;;;;4935065;29;20096;-93
2021/12/02 13:06:23;;;;;;;5.80;1.00;;;12.10;57.50;;;;;;4920745;29;20036;-92
2021/12/02 13:08:55;;;;;;;14.60;1.40;;;12.10;57.00;;;;;;4921842;29;20054;-93
2021/12/02 13:11:33;;;;;;;8.50;1.17;;;11.60;57.20;;;;;;4921723;29;20075;-92
2021/12/02 13:14:02;;;;;;;7.65;1.30;;;11.10;58.00;;;;;;4934865;29;20040;-92
2021/12/02 13:16:34;;;;;;;5.68;1.40;;;10.80;59.00;;;;;;4934824;29;20028;-92
2021/12/02 13:19:20;;;;;;;6.20;1.90;;;10.30;59.40;;;;;;4935459;29;20086;-91
2021/12/02 13:21:56;;;;;;;4.90;1.30;;;10.10;60.70;;;;;;4934805;29;20036;-93
2021/12/02 13:24:32;;;;;;;7.57;1.50;;;9.90;61.40;;;;;;4936853;29;20035;-92